sensor_id;sensor_type;location;lat;lon;timestamp;temperature;humidity
9446;DHT22;4761;49.490;10.908;2024-03-22T00:02:07;17.40;50.80
9446;DHT22;4761;49.490;10.908;2024-03-22T00:04:37;17.30;50.70
9446;DHT22;4761;49.490;10.908;2024-03-22T00:07:03;17.40;50.80
9446;DHT22;4761;49.490;10.908;2024-03-22T00:09:29;17.40;50.80
9446;DHT22;4761;49.490;10.908;2024-03-22T00:11:54;17.30;50.60
9446;DHT22;4761;49.490;10.908;2024-03-22T00:14:20;17.40;50.70
9446;DHT22;4761;49.490;10.908;2024-03-22T00:16:45;17.30;50.60
9446;DHT22;4761;49.490;10.908;2024-03-22T00:19:11;17.40;50.60
9446;DHT22;4761;49.490;10.908;2024-03-22T00:21:36;17.30;50.50
9446;DHT22;4761;49.490;10.908;2024-03-22T00:24:02;17.30;50.50
9446;DHT22;4761;49.490;10.908;2024-03-22T00:26:28;17.30;50.40
9446;DHT22;4761;49.490;10.908;2024-03-22T00:28:53;17.30;50.40
9446;DHT22;4761;49.490;10.908;2024-03-22T00:31:19;17.30;50.40
9446;DHT22;4761;49.490;10.908;2024-03-22T00:33:44;17.30;50.40
9446;DHT22;4761;49.490;10.908;2024-03-22T00:36:10;17.30;50.30
9446;DHT22;4761;49.490;10.908;2024-03-22T00:38:36;17.40;50.40
9446;DHT22;4761;49.490;10.908;2024-03-22T00:41:01;17.30;50.30
9446;DHT22;4761;49.490;10.908;2024-03-22T00:43:27;17.30;50.20
9446;DHT22;4761;49.490;10.908;2024-03-22T00:45:52;17.30;50.20
9446;DHT22;4761;49.490;10.908;2024-03-22T00:48:18;17.30;50.20
9446;DHT22;4761;49.490;10.908;2024-03-22T00:50:43;17.30;50.20
9446;DHT22;4761;49.490;10.908;2024-03-22T00:53:09;17.30;50.10
9446;DHT22;4761;49.490;10.908;2024-03-22T00:55:35;17.30;50.10
9446;DHT22;4761;49.490;10.908;2024-03-22T00:58:01;17.30;50.00
9446;DHT22;4761;49.490;10.908;2024-03-22T01:00:27;17.30;50.00
9446;DHT22;4761;49.490;10.908;2024-03-22T01:02:52;17.30;49.90
9446;DHT22;4761;49.490;10.908;2024-03-22T01:05:18;17.30;49.90
9446;DHT22;4761;49.490;10.908;2024-03-22T01:07:43;17.30;49.80
9446;DHT22;4761;49.490;10.908;2024-03-22T01:10:10;17.30;49.80
9446;DHT22;4761;49.490;10.908;2024-03-22T01:12:36;17.30;49.70
9446;DHT22;4761;49.490;10.908;2024-03-22T01:15:04;17.40;50.30
9446;DHT22;4761;49.490;10.908;2024-03-22T01:17:29;17.30;49.50
9446;DHT22;4761;49.490;10.908;2024-03-22T01:19:55;17.40;49.50
9446;DHT22;4761;49.490;10.908;2024-03-22T01:22:20;17.40;49.60
9446;DHT22;4761;49.490;10.908;2024-03-22T01:24:46;17.30;49.40
9446;DHT22;4761;49.490;10.908;2024-03-22T01:27:12;17.30;49.20
9446;DHT22;4761;49.490;10.908;2024-03-22T01:29:37;17.40;49.20
9446;DHT22;4761;49.490;10.908;2024-03-22T01:32:03;17.40;49.20
9446;DHT22;4761;49.490;10.908;2024-03-22T01:34:29;17.40;49.10
9446;DHT22;4761;49.490;10.908;2024-03-22T01:36:54;17.40;49.10
9446;DHT22;4761;49.490;10.908;2024-03-22T01:39:20;17.40;49.00
9446;DHT22;4761;49.490;10.908;2024-03-22T01:41:49;17.30;49.00
9446;DHT22;4761;49.490;10.908;2024-03-22T01:44:15;17.30;48.90
9446;DHT22;4761;49.490;10.908;2024-03-22T01:46:41;17.30;48.90
9446;DHT22;4761;49.490;10.908;2024-03-22T01:49:10;17.30;48.90
9446;DHT22;4761;49.490;10.908;2024-03-22T01:51:37;17.30;48.90
9446;DHT22;4761;49.490;10.908;2024-03-22T01:54:03;17.30;48.80
9446;DHT22;4761;49.490;10.908;2024-03-22T01:56:30;17.30;48.80
9446;DHT22;4761;49.490;10.908;2024-03-22T01:58:56;17.30;48.90
9446;DHT22;4761;49.490;10.908;2024-03-22T02:01:23;17.30;48.80
9446;DHT22;4761;49.490;10.908;2024-03-22T02:03:49;17.30;48.70
9446;DHT22;4761;49.490;10.908;2024-03-22T02:06:14;17.30;48.70
9446;DHT22;4761;49.490;10.908;2024-03-22T02:08:40;17.30;48.60
9446;DHT22;4761;49.490;10.908;2024-03-22T02:11:07;17.30;48.70
9446;DHT22;4761;49.490;10.908;2024-03-22T02:13:33;17.30;48.50
9446;DHT22;4761;49.490;10.908;2024-03-22T02:15:58;17.30;48.50
9446;DHT22;4761;49.490;10.908;2024-03-22T02:18:24;17.30;48.50
9446;DHT22;4761;49.490;10.908;2024-03-22T02:20:49;17.30;48.50
9446;DHT22;4761;49.490;10.908;2024-03-22T02:23:15;17.30;48.50
9446;DHT22;4761;49.490;10.908;2024-03-22T02:25:40;17.30;48.50
9446;DHT22;4761;49.490;10.908;2024-03-22T02:28:06;17.30;48.40
9446;DHT22;4761;49.490;10.908;2024-03-22T02:30:32;17.30;48.40
9446;DHT22;4761;49.490;10.908;2024-03-22T02:32:57;17.30;48.30
9446;DHT22;4761;49.490;10.908;2024-03-22T02:35:23;17.30;48.30
9446;DHT22;4761;49.490;10.908;2024-03-22T02:37:48;17.30;48.20
9446;DHT22;4761;49.490;10.908;2024-03-22T02:40:14;17.30;48.20
9446;DHT22;4761;49.490;10.908;2024-03-22T02:42:39;17.30;48.10
9446;DHT22;4761;49.490;10.908;2024-03-22T02:45:05;17.30;48.00
9446;DHT22;4761;49.490;10.908;2024-03-22T02:47:30;17.30;48.00
9446;DHT22;4761;49.490;10.908;2024-03-22T02:49:56;17.30;47.90
9446;DHT22;4761;49.490;10.908;2024-03-22T02:52:21;17.30;47.90
9446;DHT22;4761;49.490;10.908;2024-03-22T02:54:47;17.30;47.80
9446;DHT22;4761;49.490;10.908;2024-03-22T02:57:12;17.30;47.80
9446;DHT22;4761;49.490;10.908;2024-03-22T02:59:38;17.30;47.80
9446;DHT22;4761;49.490;10.908;2024-03-22T03:04:37;17.30;47.50
9446;DHT22;4761;49.490;10.908;2024-03-22T03:07:02;17.30;47.50
9446;DHT22;4761;49.490;10.908;2024-03-22T03:09:28;17.30;47.50
9446;DHT22;4761;49.490;10.908;2024-03-22T03:11:54;17.30;47.50
9446;DHT22;4761;49.490;10.908;2024-03-22T03:14:19;17.30;47.50
9446;DHT22;4761;49.490;10.908;2024-03-22T03:16:45;17.30;47.50
9446;DHT22;4761;49.490;10.908;2024-03-22T03:19:10;17.30;47.50
9446;DHT22;4761;49.490;10.908;2024-03-22T03:21:35;17.30;47.50
9446;DHT22;4761;49.490;10.908;2024-03-22T03:24:01;17.30;47.50
9446;DHT22;4761;49.490;10.908;2024-03-22T03:26:27;17.30;47.50
9446;DHT22;4761;49.490;10.908;2024-03-22T03:28:52;17.30;47.50
9446;DHT22;4761;49.490;10.908;2024-03-22T03:31:18;17.30;47.40
9446;DHT22;4761;49.490;10.908;2024-03-22T03:33:43;17.30;47.40
9446;DHT22;4761;49.490;10.908;2024-03-22T03:36:09;17.30;47.40
9446;DHT22;4761;49.490;10.908;2024-03-22T03:38:34;17.30;47.40
9446;DHT22;4761;49.490;10.908;2024-03-22T03:41:03;17.30;47.40
9446;DHT22;4761;49.490;10.908;2024-03-22T03:43:28;17.30;47.30
9446;DHT22;4761;49.490;10.908;2024-03-22T03:45:54;17.30;47.20
9446;DHT22;4761;49.490;10.908;2024-03-22T03:48:20;17.30;47.20
9446;DHT22;4761;49.490;10.908;2024-03-22T03:50:54;17.30;47.20
9446;DHT22;4761;49.490;10.908;2024-03-22T03:53:21;17.30;47.10
9446;DHT22;4761;49.490;10.908;2024-03-22T03:55:46;17.30;47.10
9446;DHT22;4761;49.490;10.908;2024-03-22T03:58:12;17.30;47.10
9446;DHT22;4761;49.490;10.908;2024-03-22T04:00:38;17.30;47.00
9446;DHT22;4761;49.490;10.908;2024-03-22T04:03:03;17.30;46.90
9446;DHT22;4761;49.490;10.908;2024-03-22T04:05:29;17.30;46.90
9446;DHT22;4761;49.490;10.908;2024-03-22T04:07:54;17.30;46.80
9446;DHT22;4761;49.490;10.908;2024-03-22T04:10:20;17.30;46.80
9446;DHT22;4761;49.490;10.908;2024-03-22T04:12:46;17.30;46.80
9446;DHT22;4761;49.490;10.908;2024-03-22T04:15:11;17.30;46.70
9446;DHT22;4761;49.490;10.908;2024-03-22T04:17:37;17.30;46.70
9446;DHT22;4761;49.490;10.908;2024-03-22T04:20:03;17.30;46.70
9446;DHT22;4761;49.490;10.908;2024-03-22T04:22:29;17.30;46.70
9446;DHT22;4761;49.490;10.908;2024-03-22T04:24:54;17.30;46.70
9446;DHT22;4761;49.490;10.908;2024-03-22T04:27:20;17.30;47.10
9446;DHT22;4761;49.490;10.908;2024-03-22T04:29:49;17.30;46.50
9446;DHT22;4761;49.490;10.908;2024-03-22T04:32:14;17.30;46.40
9446;DHT22;4761;49.490;10.908;2024-03-22T04:34:43;17.30;46.40
9446;DHT22;4761;49.490;10.908;2024-03-22T04:37:09;17.30;46.40
9446;DHT22;4761;49.490;10.908;2024-03-22T04:39:35;17.30;46.30
9446;DHT22;4761;49.490;10.908;2024-03-22T04:42:01;17.30;46.30
9446;DHT22;4761;49.490;10.908;2024-03-22T04:44:27;17.30;46.20
9446;DHT22;4761;49.490;10.908;2024-03-22T04:46:52;17.30;46.20
9446;DHT22;4761;49.490;10.908;2024-03-22T04:49:18;17.30;46.70
9446;DHT22;4761;49.490;10.908;2024-03-22T04:51:43;17.30;46.10
9446;DHT22;4761;49.490;10.908;2024-03-22T04:54:09;17.30;46.00
9446;DHT22;4761;49.490;10.908;2024-03-22T04:56:34;17.30;46.00
9446;DHT22;4761;49.490;10.908;2024-03-22T04:59:00;17.30;46.00
9446;DHT22;4761;49.490;10.908;2024-03-22T05:01:26;17.30;45.90
9446;DHT22;4761;49.490;10.908;2024-03-22T05:03:51;17.30;45.90
9446;DHT22;4761;49.490;10.908;2024-03-22T05:06:17;17.30;45.90
9446;DHT22;4761;49.490;10.908;2024-03-22T05:08:43;17.30;45.70
9446;DHT22;4761;49.490;10.908;2024-03-22T05:11:08;17.30;45.80
9446;DHT22;4761;49.490;10.908;2024-03-22T05:13:34;17.30;45.70
9446;DHT22;4761;49.490;10.908;2024-03-22T05:15:59;17.30;45.70
9446;DHT22;4761;49.490;10.908;2024-03-22T05:18:25;17.30;45.60
9446;DHT22;4761;49.490;10.908;2024-03-22T05:20:50;17.30;45.60
9446;DHT22;4761;49.490;10.908;2024-03-22T05:23:16;17.30;45.60
9446;DHT22;4761;49.490;10.908;2024-03-22T05:25:42;17.30;45.50
9446;DHT22;4761;49.490;10.908;2024-03-22T05:28:08;17.30;45.50
9446;DHT22;4761;49.490;10.908;2024-03-22T05:30:33;17.30;45.40
9446;DHT22;4761;49.490;10.908;2024-03-22T05:32:59;17.30;45.40
9446;DHT22;4761;49.490;10.908;2024-03-22T05:35:24;17.30;45.40
9446;DHT22;4761;49.490;10.908;2024-03-22T05:37:50;17.30;45.40
9446;DHT22;4761;49.490;10.908;2024-03-22T05:40:16;17.30;45.40
9446;DHT22;4761;49.490;10.908;2024-03-22T05:42:42;17.30;45.50
9446;DHT22;4761;49.490;10.908;2024-03-22T05:45:07;17.30;45.40
9446;DHT22;4761;49.490;10.908;2024-03-22T05:47:33;17.30;45.40
9446;DHT22;4761;49.490;10.908;2024-03-22T05:49:59;17.30;45.30
9446;DHT22;4761;49.490;10.908;2024-03-22T05:52:25;17.30;45.30
9446;DHT22;4761;49.490;10.908;2024-03-22T05:54:51;17.30;45.30
9446;DHT22;4761;49.490;10.908;2024-03-22T05:57:16;17.30;45.30
9446;DHT22;4761;49.490;10.908;2024-03-22T05:59:42;17.30;45.30
9446;DHT22;4761;49.490;10.908;2024-03-22T06:02:08;17.30;45.10
9446;DHT22;4761;49.490;10.908;2024-03-22T06:04:33;17.30;45.10
9446;DHT22;4761;49.490;10.908;2024-03-22T06:07:00;17.30;45.10
9446;DHT22;4761;49.490;10.908;2024-03-22T06:09:26;17.30;45.00
9446;DHT22;4761;49.490;10.908;2024-03-22T06:12:12;17.30;45.10
9446;DHT22;4761;49.490;10.908;2024-03-22T06:14:38;17.30;45.20
9446;DHT22;4761;49.490;10.908;2024-03-22T06:17:04;17.30;45.30
9446;DHT22;4761;49.490;10.908;2024-03-22T06:19:30;17.30;45.20
9446;DHT22;4761;49.490;10.908;2024-03-22T06:21:55;17.30;45.30
9446;DHT22;4761;49.490;10.908;2024-03-22T06:24:21;17.30;45.40
9446;DHT22;4761;49.490;10.908;2024-03-22T06:26:46;17.30;45.50
9446;DHT22;4761;49.490;10.908;2024-03-22T06:29:14;17.30;45.60
9446;DHT22;4761;49.490;10.908;2024-03-22T06:31:41;17.30;45.60
9446;DHT22;4761;49.490;10.908;2024-03-22T06:34:07;17.30;45.80
9446;DHT22;4761;49.490;10.908;2024-03-22T06:36:33;17.30;45.90
9446;DHT22;4761;49.490;10.908;2024-03-22T06:38:58;17.30;46.00
9446;DHT22;4761;49.490;10.908;2024-03-22T06:41:28;17.30;46.10
9446;DHT22;4761;49.490;10.908;2024-03-22T06:43:54;17.30;46.10
9446;DHT22;4761;49.490;10.908;2024-03-22T06:46:20;17.30;46.10
9446;DHT22;4761;49.490;10.908;2024-03-22T06:48:46;17.30;46.10
9446;DHT22;4761;49.490;10.908;2024-03-22T06:51:11;17.30;46.20
9446;DHT22;4761;49.490;10.908;2024-03-22T06:53:37;17.30;46.20
9446;DHT22;4761;49.490;10.908;2024-03-22T06:56:03;17.30;46.30
9446;DHT22;4761;49.490;10.908;2024-03-22T06:58:29;17.30;46.30
9446;DHT22;4761;49.490;10.908;2024-03-22T07:00:54;17.30;46.40
9446;DHT22;4761;49.490;10.908;2024-03-22T07:03:20;17.30;46.40
9446;DHT22;4761;49.490;10.908;2024-03-22T07:05:47;17.30;46.60
9446;DHT22;4761;49.490;10.908;2024-03-22T07:08:13;17.30;46.70
9446;DHT22;4761;49.490;10.908;2024-03-22T07:10:39;17.30;46.70
9446;DHT22;4761;49.490;10.908;2024-03-22T07:13:05;17.30;46.90
9446;DHT22;4761;49.490;10.908;2024-03-22T07:15:31;17.30;47.00
9446;DHT22;4761;49.490;10.908;2024-03-22T07:17:57;17.30;47.10
9446;DHT22;4761;49.490;10.908;2024-03-22T07:20:23;17.30;47.20
9446;DHT22;4761;49.490;10.908;2024-03-22T07:22:49;17.30;47.30
9446;DHT22;4761;49.490;10.908;2024-03-22T07:25:14;17.30;47.40
9446;DHT22;4761;49.490;10.908;2024-03-22T07:27:40;17.30;47.50
9446;DHT22;4761;49.490;10.908;2024-03-22T07:30:05;17.30;47.50
9446;DHT22;4761;49.490;10.908;2024-03-22T07:32:31;17.30;47.60
9446;DHT22;4761;49.490;10.908;2024-03-22T07:34:57;17.30;47.80
9446;DHT22;4761;49.490;10.908;2024-03-22T07:37:23;17.30;47.80
9446;DHT22;4761;49.490;10.908;2024-03-22T07:39:48;17.30;48.00
9446;DHT22;4761;49.490;10.908;2024-03-22T07:42:14;17.30;48.10
9446;DHT22;4761;49.490;10.908;2024-03-22T07:44:40;17.30;48.10
9446;DHT22;4761;49.490;10.908;2024-03-22T07:47:05;17.30;48.20
9446;DHT22;4761;49.490;10.908;2024-03-22T07:49:31;17.30;48.30
9446;DHT22;4761;49.490;10.908;2024-03-22T07:51:59;17.30;48.40
9446;DHT22;4761;49.490;10.908;2024-03-22T07:54:24;17.30;48.40
9446;DHT22;4761;49.490;10.908;2024-03-22T07:56:50;17.30;48.50
9446;DHT22;4761;49.490;10.908;2024-03-22T07:59:15;17.20;48.40
9446;DHT22;4761;49.490;10.908;2024-03-22T08:01:41;17.30;48.60
9446;DHT22;4761;49.490;10.908;2024-03-22T08:04:06;17.30;48.60
9446;DHT22;4761;49.490;10.908;2024-03-22T08:06:32;17.30;48.70
9446;DHT22;4761;49.490;10.908;2024-03-22T08:08:57;17.30;48.70
9446;DHT22;4761;49.490;10.908;2024-03-22T08:11:23;17.30;48.80
9446;DHT22;4761;49.490;10.908;2024-03-22T08:13:48;17.30;48.90
9446;DHT22;4761;49.490;10.908;2024-03-22T08:16:14;17.30;49.00
9446;DHT22;4761;49.490;10.908;2024-03-22T08:18:39;17.30;49.00
9446;DHT22;4761;49.490;10.908;2024-03-22T08:21:05;17.30;49.10
9446;DHT22;4761;49.490;10.908;2024-03-22T08:23:30;17.30;49.10
9446;DHT22;4761;49.490;10.908;2024-03-22T08:25:57;17.30;49.20
9446;DHT22;4761;49.490;10.908;2024-03-22T08:28:23;17.30;49.20
9446;DHT22;4761;49.490;10.908;2024-03-22T08:30:49;17.30;49.30
9446;DHT22;4761;49.490;10.908;2024-03-22T08:33:14;17.30;49.40
9446;DHT22;4761;49.490;10.908;2024-03-22T08:35:40;17.30;49.50
9446;DHT22;4761;49.490;10.908;2024-03-22T08:38:05;17.30;49.50
9446;DHT22;4761;49.490;10.908;2024-03-22T08:40:37;17.30;49.60
9446;DHT22;4761;49.490;10.908;2024-03-22T08:43:03;17.30;49.80
9446;DHT22;4761;49.490;10.908;2024-03-22T08:45:29;17.30;49.80
9446;DHT22;4761;49.490;10.908;2024-03-22T08:47:54;17.30;49.90
9446;DHT22;4761;49.490;10.908;2024-03-22T08:50:20;17.30;50.00
9446;DHT22;4761;49.490;10.908;2024-03-22T08:52:45;17.30;50.10
9446;DHT22;4761;49.490;10.908;2024-03-22T08:55:11;17.30;50.10
9446;DHT22;4761;49.490;10.908;2024-03-22T08:57:37;17.30;50.20
9446;DHT22;4761;49.490;10.908;2024-03-22T09:00:02;17.30;50.20
9446;DHT22;4761;49.490;10.908;2024-03-22T09:02:28;17.30;50.30
9446;DHT22;4761;49.490;10.908;2024-03-22T09:04:53;17.30;51.00
9446;DHT22;4761;49.490;10.908;2024-03-22T09:07:19;17.30;50.40
9446;DHT22;4761;49.490;10.908;2024-03-22T09:09:45;17.30;50.50
9446;DHT22;4761;49.490;10.908;2024-03-22T09:12:11;17.30;50.60
9446;DHT22;4761;49.490;10.908;2024-03-22T09:14:36;17.30;50.60
9446;DHT22;4761;49.490;10.908;2024-03-22T09:17:02;17.30;50.60
9446;DHT22;4761;49.490;10.908;2024-03-22T09:19:28;17.30;50.60
9446;DHT22;4761;49.490;10.908;2024-03-22T09:21:53;17.40;50.70
9446;DHT22;4761;49.490;10.908;2024-03-22T09:24:19;17.30;50.60
9446;DHT22;4761;49.490;10.908;2024-03-22T09:26:45;17.30;50.60
9446;DHT22;4761;49.490;10.908;2024-03-22T09:29:12;17.30;50.70
9446;DHT22;4761;49.490;10.908;2024-03-22T09:31:38;17.30;50.80
9446;DHT22;4761;49.490;10.908;2024-03-22T09:34:03;17.40;51.00
9446;DHT22;4761;49.490;10.908;2024-03-22T09:36:29;17.30;50.90
9446;DHT22;4761;49.490;10.908;2024-03-22T09:38:59;17.30;51.00
9446;DHT22;4761;49.490;10.908;2024-03-22T09:41:25;17.30;51.00
9446;DHT22;4761;49.490;10.908;2024-03-22T09:43:55;17.40;51.20
9446;DHT22;4761;49.490;10.908;2024-03-22T09:46:23;17.40;51.20
9446;DHT22;4761;49.490;10.908;2024-03-22T09:48:49;17.40;51.30
9446;DHT22;4761;49.490;10.908;2024-03-22T09:51:18;17.40;51.30
9446;DHT22;4761;49.490;10.908;2024-03-22T09:53:52;17.40;51.40
9446;DHT22;4761;49.490;10.908;2024-03-22T09:56:21;17.40;51.50
9446;DHT22;4761;49.490;10.908;2024-03-22T09:58:46;17.40;51.60
9446;DHT22;4761;49.490;10.908;2024-03-22T10:01:12;17.40;51.70
9446;DHT22;4761;49.490;10.908;2024-03-22T10:03:38;17.40;51.70
9446;DHT22;4761;49.490;10.908;2024-03-22T10:06:04;17.40;51.80
9446;DHT22;4761;49.490;10.908;2024-03-22T10:08:30;17.40;51.90
9446;DHT22;4761;49.490;10.908;2024-03-22T10:10:55;17.40;51.90
9446;DHT22;4761;49.490;10.908;2024-03-22T10:13:21;17.40;52.00
9446;DHT22;4761;49.490;10.908;2024-03-22T10:15:47;17.40;52.10
9446;DHT22;4761;49.490;10.908;2024-03-22T10:18:12;17.40;52.10
9446;DHT22;4761;49.490;10.908;2024-03-22T10:20:40;17.40;52.20
9446;DHT22;4761;49.490;10.908;2024-03-22T10:23:07;17.40;52.10
9446;DHT22;4761;49.490;10.908;2024-03-22T10:25:34;17.40;52.10
9446;DHT22;4761;49.490;10.908;2024-03-22T10:27:59;17.40;52.10
9446;DHT22;4761;49.490;10.908;2024-03-22T10:30:25;17.50;52.20
9446;DHT22;4761;49.490;10.908;2024-03-22T10:32:51;17.50;52.20
9446;DHT22;4761;49.490;10.908;2024-03-22T10:35:18;17.40;52.10
9446;DHT22;4761;49.490;10.908;2024-03-22T10:37:44;17.50;52.30
9446;DHT22;4761;49.490;10.908;2024-03-22T10:40:10;17.40;52.30
9446;DHT22;4761;49.490;10.908;2024-03-22T10:42:37;17.40;52.40
9446;DHT22;4761;49.490;10.908;2024-03-22T10:45:04;17.40;52.50
9446;DHT22;4761;49.490;10.908;2024-03-22T10:47:31;17.40;52.40
9446;DHT22;4761;49.490;10.908;2024-03-22T10:50:17;17.40;52.40
9446;DHT22;4761;49.490;10.908;2024-03-22T10:52:50;17.50;52.50
9446;DHT22;4761;49.490;10.908;2024-03-22T10:55:27;17.40;52.40
9446;DHT22;4761;49.490;10.908;2024-03-22T10:57:58;17.40;52.50
9446;DHT22;4761;49.490;10.908;2024-03-22T11:00:32;17.40;52.50
9446;DHT22;4761;49.490;10.908;2024-03-22T11:02:57;17.40;52.60
9446;DHT22;4761;49.490;10.908;2024-03-22T11:05:23;17.40;52.70
9446;DHT22;4761;49.490;10.908;2024-03-22T11:07:59;17.40;52.70
9446;DHT22;4761;49.490;10.908;2024-03-22T11:10:34;17.40;52.70
9446;DHT22;4761;49.490;10.908;2024-03-22T11:13:03;17.40;52.70
9446;DHT22;4761;49.490;10.908;2024-03-22T11:15:30;17.40;52.80
9446;DHT22;4761;49.490;10.908;2024-03-22T11:17:56;17.40;52.80
9446;DHT22;4761;49.490;10.908;2024-03-22T11:20:22;17.40;52.80
9446;DHT22;4761;49.490;10.908;2024-03-22T11:22:47;17.40;52.80
9446;DHT22;4761;49.490;10.908;2024-03-22T11:25:13;17.40;52.80
9446;DHT22;4761;49.490;10.908;2024-03-22T11:27:38;17.40;52.90
9446;DHT22;4761;49.490;10.908;2024-03-22T11:30:04;17.40;52.90
9446;DHT22;4761;49.490;10.908;2024-03-22T11:32:30;17.40;52.90
9446;DHT22;4761;49.490;10.908;2024-03-22T11:34:56;17.40;52.90
9446;DHT22;4761;49.490;10.908;2024-03-22T11:37:22;17.40;52.90
9446;DHT22;4761;49.490;10.908;2024-03-22T11:39:48;17.40;52.90
9446;DHT22;4761;49.490;10.908;2024-03-22T11:42:15;17.40;52.90
9446;DHT22;4761;49.490;10.908;2024-03-22T11:44:42;17.40;52.80
9446;DHT22;4761;49.490;10.908;2024-03-22T11:47:08;17.40;52.70
9446;DHT22;4761;49.490;10.908;2024-03-22T11:49:34;17.40;52.70
9446;DHT22;4761;49.490;10.908;2024-03-22T11:52:00;17.40;52.60
9446;DHT22;4761;49.490;10.908;2024-03-22T11:54:26;17.40;52.50
9446;DHT22;4761;49.490;10.908;2024-03-22T11:56:51;17.40;52.50
9446;DHT22;4761;49.490;10.908;2024-03-22T11:59:20;17.40;52.40
9446;DHT22;4761;49.490;10.908;2024-03-22T12:01:46;17.40;52.50
9446;DHT22;4761;49.490;10.908;2024-03-22T12:04:12;17.40;52.60
9446;DHT22;4761;49.490;10.908;2024-03-22T12:06:46;17.40;52.50
9446;DHT22;4761;49.490;10.908;2024-03-22T12:09:12;17.40;52.50
9446;DHT22;4761;49.490;10.908;2024-03-22T12:11:39;17.40;52.60
9446;DHT22;4761;49.490;10.908;2024-03-22T12:14:05;17.40;52.50
9446;DHT22;4761;49.490;10.908;2024-03-22T12:16:30;17.40;52.50
9446;DHT22;4761;49.490;10.908;2024-03-22T12:18:56;17.40;52.60
9446;DHT22;4761;49.490;10.908;2024-03-22T12:21:21;17.40;52.60
9446;DHT22;4761;49.490;10.908;2024-03-22T12:23:47;17.40;52.70
9446;DHT22;4761;49.490;10.908;2024-03-22T12:26:13;17.40;52.70
9446;DHT22;4761;49.490;10.908;2024-03-22T12:28:38;17.40;52.70
9446;DHT22;4761;49.490;10.908;2024-03-22T12:31:04;17.40;52.70
9446;DHT22;4761;49.490;10.908;2024-03-22T12:33:30;17.40;52.70
9446;DHT22;4761;49.490;10.908;2024-03-22T12:35:56;17.40;52.70
9446;DHT22;4761;49.490;10.908;2024-03-22T12:38:21;17.40;52.70
9446;DHT22;4761;49.490;10.908;2024-03-22T12:40:47;17.40;52.60
9446;DHT22;4761;49.490;10.908;2024-03-22T12:43:12;17.40;52.60
9446;DHT22;4761;49.490;10.908;2024-03-22T12:45:38;17.40;52.70
9446;DHT22;4761;49.490;10.908;2024-03-22T12:48:05;17.40;52.70
9446;DHT22;4761;49.490;10.908;2024-03-22T12:50:30;17.40;52.70
9446;DHT22;4761;49.490;10.908;2024-03-22T12:52:56;17.40;52.60
9446;DHT22;4761;49.490;10.908;2024-03-22T12:55:21;17.40;52.40
9446;DHT22;4761;49.490;10.908;2024-03-22T12:57:47;17.40;52.40
9446;DHT22;4761;49.490;10.908;2024-03-22T13:00:13;17.50;52.50
9446;DHT22;4761;49.490;10.908;2024-03-22T13:02:44;17.40;52.50
9446;DHT22;4761;49.490;10.908;2024-03-22T13:05:09;17.40;52.60
9446;DHT22;4761;49.490;10.908;2024-03-22T13:07:35;17.40;52.60
9446;DHT22;4761;49.490;10.908;2024-03-22T13:10:01;17.40;52.70
9446;DHT22;4761;49.490;10.908;2024-03-22T13:12:28;17.40;52.70
9446;DHT22;4761;49.490;10.908;2024-03-22T13:14:54;17.40;52.70
9446;DHT22;4761;49.490;10.908;2024-03-22T13:17:20;17.40;52.80
9446;DHT22;4761;49.490;10.908;2024-03-22T13:19:46;17.40;52.80
9446;DHT22;4761;49.490;10.908;2024-03-22T13:22:11;17.40;52.90
9446;DHT22;4761;49.490;10.908;2024-03-22T13:24:38;17.40;52.80
9446;DHT22;4761;49.490;10.908;2024-03-22T13:27:03;17.40;52.80
9446;DHT22;4761;49.490;10.908;2024-03-22T13:29:29;17.40;52.70
9446;DHT22;4761;49.490;10.908;2024-03-22T13:31:54;17.40;52.70
9446;DHT22;4761;49.490;10.908;2024-03-22T13:34:20;17.40;52.60
9446;DHT22;4761;49.490;10.908;2024-03-22T13:36:45;17.40;52.60
9446;DHT22;4761;49.490;10.908;2024-03-22T13:39:12;17.40;52.60
9446;DHT22;4761;49.490;10.908;2024-03-22T13:41:41;17.40;52.60
9446;DHT22;4761;49.490;10.908;2024-03-22T13:44:06;17.40;52.60
9446;DHT22;4761;49.490;10.908;2024-03-22T13:46:33;17.40;52.60
9446;DHT22;4761;49.490;10.908;2024-03-22T13:49:03;17.40;52.60
9446;DHT22;4761;49.490;10.908;2024-03-22T13:51:29;17.40;52.70
9446;DHT22;4761;49.490;10.908;2024-03-22T13:53:57;17.40;52.70
9446;DHT22;4761;49.490;10.908;2024-03-22T13:56:22;17.40;52.70
9446;DHT22;4761;49.490;10.908;2024-03-22T13:58:48;17.40;52.80
9446;DHT22;4761;49.490;10.908;2024-03-22T14:01:14;17.40;52.80
9446;DHT22;4761;49.490;10.908;2024-03-22T14:03:40;17.40;52.70
9446;DHT22;4761;49.490;10.908;2024-03-22T14:06:06;17.40;52.70
9446;DHT22;4761;49.490;10.908;2024-03-22T14:08:32;17.50;52.70
9446;DHT22;4761;49.490;10.908;2024-03-22T14:10:57;17.50;52.70
9446;DHT22;4761;49.490;10.908;2024-03-22T14:13:23;17.40;52.70
9446;DHT22;4761;49.490;10.908;2024-03-22T14:15:48;17.40;52.70
9446;DHT22;4761;49.490;10.908;2024-03-22T14:18:14;17.40;52.70
9446;DHT22;4761;49.490;10.908;2024-03-22T14:20:39;17.40;52.70
9446;DHT22;4761;49.490;10.908;2024-03-22T14:23:05;17.40;52.70
9446;DHT22;4761;49.490;10.908;2024-03-22T14:25:32;17.50;52.80
9446;DHT22;4761;49.490;10.908;2024-03-22T14:27:57;17.50;52.80
9446;DHT22;4761;49.490;10.908;2024-03-22T14:30:23;17.40;52.60
9446;DHT22;4761;49.490;10.908;2024-03-22T14:32:50;17.50;52.60
9446;DHT22;4761;49.490;10.908;2024-03-22T14:35:16;17.50;53.00
9446;DHT22;4761;49.490;10.908;2024-03-22T14:37:41;17.50;52.70
9446;DHT22;4761;49.490;10.908;2024-03-22T14:40:07;17.50;52.80
9446;DHT22;4761;49.490;10.908;2024-03-22T14:42:36;17.50;52.80
9446;DHT22;4761;49.490;10.908;2024-03-22T14:45:02;17.40;52.80
9446;DHT22;4761;49.490;10.908;2024-03-22T14:47:28;17.40;53.20
9446;DHT22;4761;49.490;10.908;2024-03-22T14:49:54;17.50;52.90
9446;DHT22;4761;49.490;10.908;2024-03-22T14:52:20;17.50;53.00
9446;DHT22;4761;49.490;10.908;2024-03-22T14:54:47;17.40;52.90
9446;DHT22;4761;49.490;10.908;2024-03-22T14:57:12;17.40;52.90
9446;DHT22;4761;49.490;10.908;2024-03-22T14:59:38;17.50;52.90
9446;DHT22;4761;49.490;10.908;2024-03-22T15:02:04;17.40;52.70
9446;DHT22;4761;49.490;10.908;2024-03-22T15:04:29;17.40;52.70
9446;DHT22;4761;49.490;10.908;2024-03-22T15:06:55;17.40;52.70
9446;DHT22;4761;49.490;10.908;2024-03-22T15:09:20;17.40;52.60
9446;DHT22;4761;49.490;10.908;2024-03-22T15:11:46;17.40;52.60
9446;DHT22;4761;49.490;10.908;2024-03-22T15:14:12;17.40;52.60
9446;DHT22;4761;49.490;10.908;2024-03-22T15:16:39;17.40;52.50
9446;DHT22;4761;49.490;10.908;2024-03-22T15:19:05;17.40;52.50
9446;DHT22;4761;49.490;10.908;2024-03-22T15:21:31;17.40;52.50
9446;DHT22;4761;49.490;10.908;2024-03-22T15:23:56;17.50;52.60
9446;DHT22;4761;49.490;10.908;2024-03-22T15:26:22;17.50;52.60
9446;DHT22;4761;49.490;10.908;2024-03-22T15:28:47;17.40;52.50
9446;DHT22;4761;49.490;10.908;2024-03-22T15:31:14;17.40;52.40
9446;DHT22;4761;49.490;10.908;2024-03-22T15:33:40;17.40;52.40
9446;DHT22;4761;49.490;10.908;2024-03-22T15:36:06;17.50;52.30
9446;DHT22;4761;49.490;10.908;2024-03-22T15:38:31;17.40;52.20
9446;DHT22;4761;49.490;10.908;2024-03-22T15:40:57;17.40;52.10